createdAt,value
2023-03-01T00:00:33.987Z,62.63
2023-03-01T00:03:36.447Z,63.24
2023-03-01T00:06:38.972Z,63.02
2023-03-01T00:09:41.156Z,62.72
2023-03-01T00:12:43.147Z,61.84
2023-03-01T00:15:45.028Z,62.79
2023-03-01T00:18:47.611Z,62.46
2023-03-01T00:21:50.015Z,62.70
2023-03-01T00:24:51.858Z,63.24
2023-03-01T00:27:53.734Z,61.89
2023-03-01T00:30:56.260Z,62.52
2023-03-01T00:34:01.508Z,61.92
2023-03-01T00:37:06.191Z,62.22
2023-03-01T00:40:09.482Z,61.46
2023-03-01T00:43:14.913Z,62.14
2023-03-01T00:46:20.633Z,62.38
2023-03-01T00:49:22.709Z,62.36
2023-03-01T00:52:25.310Z,63.15
2023-03-01T00:55:27.702Z,63.16
2023-03-01T00:58:30.634Z,62.32
2023-03-01T01:01:32.812Z,63.09
2023-03-01T01:04:34.963Z,63.55
2023-03-01T01:07:37.050Z,63.21
2023-03-01T01:10:41.140Z,62.50
2023-03-01T01:13:44.823Z,64.43
2023-03-01T01:16:46.655Z,63.33
2023-03-01T01:19:48.559Z,63.90
2023-03-01T01:22:50.604Z,64.09
2023-03-01T01:25:52.631Z,63.73
2023-03-01T01:28:55.593Z,63.77
2023-03-01T01:31:57.564Z,63.86
2023-03-01T01:34:59.548Z,64.52
2023-03-01T01:38:01.498Z,64.00
2023-03-01T01:41:04.854Z,64.03
2023-03-01T01:44:19.804Z,64.44
2023-03-01T01:47:24.314Z,64.84
2023-03-01T01:50:27.654Z,64.42
2023-03-01T01:53:30.248Z,63.90
2023-03-01T01:56:32.485Z,64.14
2023-03-01T01:59:35.305Z,64.56
2023-03-01T02:02:40.642Z,64.09
2023-03-01T02:05:55.000Z,63.90
2023-03-01T02:09:02.239Z,64.28
2023-03-01T02:12:05.808Z,64.05
2023-03-01T02:15:09.241Z,63.59
2023-03-01T02:18:15.559Z,63.53
2023-03-01T02:21:17.376Z,63.90
2023-03-01T02:24:37.729Z,63.83
2023-03-01T02:27:51.353Z,62.93
2023-03-01T02:31:13.948Z,63.02
2023-03-01T02:34:22.288Z,63.20
2023-03-01T02:37:27.417Z,63.17
2023-03-01T02:40:35.606Z,63.78
2023-03-01T02:43:38.232Z,63.58
2023-03-01T02:47:03.966Z,63.77
2023-03-01T02:50:24.379Z,63.89
2023-03-01T02:54:01.047Z,64.05
2023-03-01T02:57:03.763Z,63.67
2023-03-01T03:00:20.292Z,64.01
2023-03-01T03:03:23.111Z,64.73
2023-03-01T03:06:25.034Z,65.04
2023-03-01T03:09:28.063Z,63.75
2023-03-01T03:12:31.679Z,64.94
2023-03-01T03:15:37.004Z,65.21
2023-03-01T03:18:38.979Z,64.86
2023-03-01T03:21:41.104Z,65.07
2023-03-01T03:24:42.939Z,64.98
2023-03-01T03:27:46.467Z,65.38
2023-03-01T03:30:48.978Z,65.12
2023-03-01T03:33:50.877Z,65.60
2023-03-01T03:37:00.513Z,64.40
2023-03-01T03:40:02.452Z,64.35
2023-03-01T03:43:06.676Z,64.43
2023-03-01T03:46:08.904Z,64.54
2023-03-01T03:49:11.004Z,64.39
2023-03-01T03:52:14.416Z,64.46
2023-03-01T03:55:20.300Z,64.63
2023-03-01T03:58:24.168Z,64.81
2023-03-01T04:01:26.221Z,64.99
2023-03-01T04:04:28.327Z,64.31
2023-03-01T04:07:30.277Z,63.79
2023-03-01T04:10:38.571Z,63.71
2023-03-01T04:13:40.687Z,64.12
2023-03-01T04:16:42.683Z,63.72
2023-03-01T04:19:45.099Z,63.51
2023-03-01T04:22:47.997Z,63.53
2023-03-01T04:25:55.182Z,63.18
2023-03-01T04:28:57.290Z,63.17
2023-03-01T04:32:00.181Z,63.51
2023-03-01T04:35:02.206Z,63.59
2023-03-01T04:38:05.011Z,63.54
2023-03-01T04:41:11.766Z,63.54
2023-03-01T04:44:14.054Z,63.94
2023-03-01T04:47:16.044Z,63.76
2023-03-01T04:50:18.463Z,63.91
2023-03-01T04:53:20.859Z,63.91
2023-03-01T04:56:24.118Z,63.37
2023-03-01T04:59:26.597Z,63.71
2023-03-01T05:02:28.448Z,63.15
2023-03-01T05:05:37.180Z,64.02
2023-03-01T05:08:40.588Z,63.60
2023-03-01T05:11:42.790Z,64.21
2023-03-01T05:14:44.822Z,64.79
2023-03-01T05:17:47.230Z,64.75
2023-03-01T05:20:50.590Z,64.58
2023-03-01T05:23:53.130Z,64.22
2023-03-01T05:26:55.358Z,63.24
2023-03-01T05:29:57.600Z,62.54
2023-03-01T05:32:59.565Z,63.74
2023-03-01T05:36:01.893Z,63.33
2023-03-01T05:39:04.022Z,62.89
2023-03-01T05:42:06.395Z,63.04
2023-03-01T05:45:10.678Z,63.54
2023-03-01T05:48:20.444Z,62.96
2023-03-01T05:51:43.884Z,62.88
2023-03-01T05:55:06.251Z,62.51
2023-03-01T05:58:11.504Z,61.85
2023-03-01T06:01:14.545Z,62.09
2023-03-01T06:04:16.705Z,61.72
2023-03-01T06:07:18.725Z,61.24
2023-03-01T06:10:22.477Z,60.72
2023-03-01T06:13:24.937Z,60.82
2023-03-01T06:16:26.792Z,60.55
2023-03-01T06:19:28.703Z,60.30
2023-03-01T06:22:30.667Z,60.68
2023-03-01T06:25:33.116Z,60.20
2023-03-01T06:28:36.207Z,60.24
2023-03-01T06:31:38.369Z,60.26
2023-03-01T06:34:40.516Z,59.96
2023-03-01T06:37:42.639Z,60.32
2023-03-01T06:40:46.160Z,58.34
2023-03-01T06:43:48.040Z,58.90
2023-03-01T06:46:50.144Z,59.12
2023-03-01T06:49:52.076Z,59.36
2023-03-01T06:52:57.361Z,59.42
2023-03-01T06:56:01.420Z,59.00
2023-03-01T06:59:04.959Z,57.78
2023-03-01T07:02:14.881Z,58.47
2023-03-01T07:05:19.148Z,58.16
2023-03-01T07:08:24.297Z,57.94
2023-03-01T07:11:32.902Z,56.98
2023-03-01T07:14:39.267Z,56.89
2023-03-01T07:17:43.189Z,56.80
2023-03-01T07:20:47.557Z,56.60
2023-03-01T07:24:13.164Z,56.06
2023-03-01T07:27:36.432Z,55.65
2023-03-01T07:31:06.519Z,56.55
2023-03-01T07:34:29.663Z,55.83
2023-03-01T07:37:53.031Z,55.76
2023-03-01T07:41:15.901Z,54.91
2023-03-01T07:44:18.999Z,54.86
2023-03-01T07:47:21.911Z,54.32
2023-03-01T07:50:27.924Z,55.52
2023-03-01T07:53:32.924Z,55.41
2023-03-01T07:56:37.409Z,54.84
2023-03-01T07:59:41.404Z,54.85
2023-03-01T08:02:48.124Z,55.26
2023-03-01T08:06:04.479Z,53.10
2023-03-01T08:09:14.420Z,53.66
2023-03-01T08:12:24.160Z,53.16
2023-03-01T08:15:31.153Z,53.10
2023-03-01T08:18:38.315Z,53.10
2023-03-01T08:21:44.492Z,53.69
2023-03-01T08:24:51.416Z,52.90
2023-03-01T08:27:55.452Z,52.04
2023-03-01T08:31:01.644Z,52.96
2023-03-01T08:34:12.260Z,52.64
2023-03-01T08:37:16.227Z,51.41
2023-03-01T08:40:22.570Z,51.74
2023-03-01T08:43:26.916Z,51.16
2023-03-01T08:46:39.190Z,51.46
2023-03-01T09:04:20.064Z,49.76
2023-03-01T09:07:29.904Z,50.51
2023-03-01T09:10:39.610Z,49.79
2023-03-01T09:13:44.395Z,50.38
2023-03-01T09:16:50.214Z,50.25
2023-03-01T09:20:01.368Z,49.83
2023-03-01T09:23:12.445Z,49.61
2023-03-01T09:26:22.934Z,48.72
2023-03-01T09:29:27.655Z,47.92
2023-03-01T09:32:44.251Z,49.27
2023-03-01T09:36:07.107Z,49.23
2023-03-01T09:39:14.022Z,48.01
2023-03-01T09:42:18.152Z,47.65
2023-03-01T09:45:36.114Z,48.23
2023-03-01T09:48:56.800Z,47.35
2023-03-01T09:52:27.151Z,46.84
2023-03-01T09:55:42.922Z,45.43
2023-03-01T09:58:55.785Z,46.14
2023-03-01T10:02:11.465Z,44.91
2023-03-01T10:05:33.647Z,45.03
2023-03-01T10:08:44.863Z,44.29
2023-03-01T10:11:59.422Z,44.76
2023-03-01T10:15:15.913Z,43.30
2023-03-01T10:18:24.924Z,43.47
2023-03-01T10:21:33.196Z,43.38
2023-03-01T10:24:38.224Z,40.62
2023-03-01T10:27:54.225Z,42.84
2023-03-01T10:30:59.908Z,42.08
2023-03-01T10:34:04.382Z,42.98
2023-03-01T10:37:14.824Z,41.18
2023-03-01T10:40:20.477Z,40.69
2023-03-01T10:43:27.112Z,41.23
2023-03-01T10:46:34.419Z,40.54
2023-03-01T10:49:38.087Z,39.27
2023-03-01T10:52:43.609Z,40.04
2023-03-01T10:55:47.698Z,40.60
2023-03-01T10:59:02.088Z,38.70
2023-03-01T11:02:24.636Z,39.61
2023-03-01T11:05:35.077Z,39.08
2023-03-01T11:08:46.760Z,40.81
2023-03-01T11:11:57.551Z,39.54
2023-03-01T11:15:00.895Z,40.26
2023-03-01T11:18:13.764Z,39.40
2023-03-01T11:21:18.412Z,38.56
2023-03-01T11:24:30.277Z,38.89
2023-03-01T11:27:38.188Z,38.02
2023-03-01T11:31:07.772Z,39.41
2023-03-01T11:34:21.434Z,38.50
2023-03-01T11:37:49.986Z,39.59
2023-03-01T11:41:12.524Z,40.16
2023-03-01T11:44:15.596Z,40.03
2023-03-01T11:47:52.526Z,38.34
2023-03-01T11:51:04.132Z,40.16
2023-03-01T11:54:22.729Z,38.54
2023-03-01T11:57:48.941Z,38.64
2023-03-01T12:01:05.787Z,38.27
2023-03-01T12:04:27.653Z,37.60
2023-03-01T12:08:17.384Z,39.24
2023-03-01T12:11:39.127Z,37.54
2023-03-01T12:15:01.000Z,37.16
2023-03-01T12:18:22.413Z,36.92
2023-03-01T12:21:31.154Z,36.14
2023-03-01T12:24:43.523Z,35.62
2023-03-01T12:27:51.199Z,35.95
2023-03-01T12:31:14.732Z,35.60
2023-03-01T12:34:25.664Z,33.89
2023-03-01T12:37:52.989Z,34.12
2023-03-01T12:41:36.979Z,34.45
2023-03-01T12:44:45.200Z,33.61
2023-03-01T12:48:45.788Z,32.75
2023-03-01T12:51:57.675Z,32.58
2023-03-01T12:55:29.807Z,32.46
2023-03-01T12:59:16.324Z,32.91
2023-03-01T13:03:16.744Z,32.62
2023-03-01T13:07:16.972Z,32.83
2023-03-01T13:11:24.765Z,32.51
2023-03-01T13:15:26.429Z,33.00
2023-03-01T13:19:30.249Z,32.79
2023-03-01T13:23:23.931Z,32.92
2023-03-01T13:27:07.758Z,32.82
2023-03-01T13:30:32.614Z,32.67
2023-03-01T13:33:42.196Z,33.11
2023-03-01T13:36:50.105Z,32.79
2023-03-01T13:39:52.868Z,32.01
2023-03-01T13:43:05.368Z,32.94
2023-03-01T13:46:21.239Z,32.50
2023-03-01T13:49:31.484Z,32.49
2023-03-01T13:52:47.604Z,33.42
2023-03-01T13:55:55.192Z,32.34
2023-03-01T13:59:02.631Z,32.67
2023-03-01T14:02:13.427Z,33.25
2023-03-01T14:05:15.465Z,33.74
2023-03-01T14:08:26.767Z,34.44
2023-03-01T14:11:28.597Z,33.30
2023-03-01T14:14:47.659Z,33.26
2023-03-01T14:18:01.225Z,33.79
2023-03-01T14:21:10.001Z,33.79
2023-03-01T14:24:21.536Z,34.72
2023-03-01T14:27:27.550Z,35.03
2023-03-01T14:30:43.490Z,34.41
2023-03-01T14:33:56.094Z,34.77
2023-03-01T14:36:57.963Z,34.92
2023-03-01T14:40:01.458Z,35.20
2023-03-01T14:43:12.083Z,35.60
2023-03-01T14:46:37.425Z,35.82
2023-03-01T14:49:39.579Z,36.25
2023-03-01T14:52:46.085Z,36.15
2023-03-01T14:55:51.636Z,35.84
2023-03-01T14:59:00.364Z,35.91
2023-03-01T15:02:02.598Z,36.24
2023-03-01T15:05:08.102Z,37.19
2023-03-01T15:08:20.079Z,37.21
2023-03-01T15:11:32.203Z,37.96
2023-03-01T15:14:52.172Z,37.86
2023-03-01T15:18:04.188Z,38.71
2023-03-01T15:21:16.205Z,39.00
2023-03-01T15:24:29.973Z,39.46
2023-03-01T15:27:31.874Z,40.27
2023-03-01T15:30:38.434Z,40.69
2023-03-01T15:33:48.093Z,41.36
2023-03-01T15:36:51.696Z,41.70
2023-03-01T15:39:57.871Z,41.98
2023-03-01T15:43:01.084Z,42.41
2023-03-01T15:46:03.146Z,42.11
2023-03-01T15:49:35.484Z,42.60
2023-03-01T15:52:43.808Z,41.94
2023-03-01T15:55:47.927Z,41.30
2023-03-01T15:58:49.931Z,41.55
2023-03-01T16:01:51.983Z,40.26
2023-03-01T16:04:54.836Z,41.14
2023-03-01T16:07:56.779Z,40.82
2023-03-01T16:10:59.722Z,40.92
2023-03-01T16:14:01.753Z,39.57
2023-03-01T16:17:03.838Z,38.01
2023-03-01T16:20:06.541Z,37.65
2023-03-01T16:23:17.320Z,38.07
2023-03-01T16:26:21.346Z,38.31
2023-03-01T16:29:23.497Z,38.41
2023-03-01T16:32:25.970Z,38.08
2023-03-01T16:35:28.491Z,36.63
2023-03-01T16:38:32.617Z,35.34
2023-03-01T16:41:34.684Z,35.56
2023-03-01T16:44:36.856Z,34.68
2023-03-01T16:47:38.960Z,34.43
2023-03-01T16:50:41.542Z,34.24
2023-03-01T16:53:46.341Z,34.60
2023-03-01T16:56:49.220Z,34.26
2023-03-01T16:59:54.776Z,33.36
2023-03-01T17:02:56.886Z,32.60
2023-03-01T17:06:02.920Z,32.39
2023-03-01T17:09:04.883Z,31.17
2023-03-01T17:12:07.451Z,30.79
2023-03-01T17:15:10.653Z,30.47
2023-03-01T17:18:12.919Z,30.36
2023-03-01T17:21:15.448Z,30.08
2023-03-01T17:24:17.709Z,30.18
2023-03-01T17:27:27.225Z,29.99
2023-03-01T17:30:29.678Z,30.23
2023-03-01T17:33:33.446Z,29.88
2023-03-01T17:36:43.988Z,30.24
2023-03-01T17:39:46.118Z,29.84
2023-03-01T17:42:48.235Z,30.51
2023-03-01T17:45:52.437Z,30.60
2023-03-01T17:48:54.371Z,31.28
2023-03-01T17:51:56.645Z,31.92
2023-03-01T17:54:58.703Z,32.39
2023-03-01T17:58:00.843Z,32.89
2023-03-01T18:01:20.464Z,33.30
2023-03-01T18:04:22.956Z,33.74
2023-03-01T18:07:28.299Z,34.19
2023-03-01T18:10:32.619Z,34.37
2023-03-01T18:13:35.984Z,34.51
2023-03-01T18:16:39.811Z,35.16
2023-03-01T18:19:41.926Z,34.98
2023-03-01T18:22:43.921Z,35.61
2023-03-01T18:25:46.113Z,35.96
2023-03-01T18:28:52.173Z,36.42
2023-03-01T18:32:04.001Z,36.65
2023-03-01T18:35:07.600Z,37.70
2023-03-01T18:38:09.880Z,37.37
2023-03-01T18:41:12.070Z,38.33
2023-03-01T18:44:14.670Z,37.88
2023-03-01T18:47:19.848Z,37.91
2023-03-01T18:50:22.703Z,38.10
2023-03-01T18:53:24.588Z,39.02
2023-03-01T18:56:29.662Z,39.72
2023-03-01T18:59:32.487Z,39.83
2023-03-01T19:02:34.787Z,40.72
2023-03-01T19:05:41.023Z,41.02
2023-03-01T19:08:44.594Z,41.07
2023-03-01T19:11:46.705Z,42.47
2023-03-01T19:14:49.107Z,42.26
2023-03-01T19:17:53.091Z,42.74
2023-03-01T19:21:03.880Z,44.06
2023-03-01T19:24:07.511Z,44.35
2023-03-01T19:27:10.037Z,45.00
2023-03-01T19:30:12.607Z,44.81
2023-03-01T19:33:15.418Z,45.80
2023-03-01T19:36:18.686Z,45.73
2023-03-01T19:39:20.847Z,46.16
2023-03-01T19:42:27.586Z,46.16
2023-03-01T19:45:33.678Z,45.88
2023-03-01T19:48:36.122Z,46.30
2023-03-01T19:51:39.444Z,46.57
2023-03-01T19:54:41.724Z,46.17
2023-03-01T19:57:43.698Z,46.49
2023-03-01T20:00:47.338Z,46.75
2023-03-01T20:03:49.471Z,46.13
2023-03-01T20:06:51.660Z,46.63
2023-03-01T20:09:53.818Z,46.61
2023-03-01T20:12:56.184Z,46.95
2023-03-01T20:15:58.230Z,45.99
2023-03-01T20:19:01.201Z,45.82
2023-03-01T20:22:03.626Z,45.88
2023-03-01T20:25:06.837Z,46.60
2023-03-01T20:28:09.212Z,46.46
2023-03-01T20:31:12.696Z,46.57
2023-03-01T20:34:15.042Z,46.67
2023-03-01T20:37:17.308Z,46.67
2023-03-01T20:40:26.960Z,46.68
2023-03-01T20:43:29.483Z,46.92
2023-03-01T20:46:32.824Z,46.54
2023-03-01T20:49:35.414Z,47.66
2023-03-01T20:52:47.135Z,46.97
2023-03-01T20:55:49.812Z,46.97
2023-03-01T20:58:51.969Z,46.50
2023-03-01T21:01:54.254Z,46.65
2023-03-01T21:04:56.380Z,46.70
2023-03-01T21:08:01.143Z,46.60
2023-03-01T21:11:06.274Z,47.23
2023-03-01T21:14:09.724Z,47.39
2023-03-01T21:17:15.151Z,47.00
2023-03-01T21:20:19.836Z,46.93
2023-03-01T21:23:22.418Z,47.13
2023-03-01T21:26:26.541Z,47.36
2023-03-01T21:29:28.593Z,47.12
2023-03-01T21:32:30.604Z,48.69
2023-03-01T21:35:32.464Z,48.46
2023-03-01T21:38:37.670Z,48.28
2023-03-01T21:41:39.644Z,48.95
2023-03-01T21:44:41.612Z,48.73
2023-03-01T21:47:43.656Z,48.43
2023-03-01T21:50:53.935Z,49.66
2023-03-01T21:53:56.483Z,49.11
2023-03-01T21:56:58.355Z,49.03
2023-03-01T22:00:08.046Z,48.86
2023-03-01T22:03:18.211Z,48.89
2023-03-01T22:06:34.270Z,48.64
2023-03-01T22:09:36.485Z,48.64
2023-03-01T22:12:38.855Z,48.92
2023-03-01T22:15:42.001Z,49.08
2023-03-01T22:18:43.868Z,48.85
2023-03-01T22:21:49.807Z,49.52
2023-03-01T22:24:51.773Z,49.14
2023-03-01T22:27:53.849Z,48.22
2023-03-01T22:30:56.072Z,48.75
2023-03-01T22:33:59.677Z,48.26
2023-03-01T22:37:01.643Z,48.26
2023-03-01T22:40:04.613Z,48.22
2023-03-01T22:43:06.870Z,49.58
2023-03-01T22:46:18.233Z,48.62
2023-03-01T22:49:21.108Z,48.75
2023-03-01T22:52:23.381Z,48.54
2023-03-01T22:55:27.642Z,48.61
2023-03-01T22:58:29.504Z,48.94
2023-03-01T23:01:31.985Z,49.50
2023-03-01T23:04:34.100Z,49.53
2023-03-01T23:07:37.607Z,49.35
2023-03-01T23:10:40.912Z,49.89
2023-03-01T23:13:43.742Z,49.30
2023-03-01T23:16:45.739Z,49.34
2023-03-01T23:19:47.900Z,49.60
2023-03-01T23:22:49.758Z,48.75
2023-03-01T23:25:58.476Z,48.50
2023-03-01T23:29:00.480Z,48.78
2023-03-01T23:32:02.466Z,48.91
2023-03-01T23:35:06.015Z,48.72
2023-03-01T23:38:07.944Z,48.71
2023-03-01T23:41:15.566Z,48.87
2023-03-01T23:44:19.781Z,48.59
2023-03-01T23:47:21.627Z,49.12
2023-03-01T23:50:24.407Z,48.76
2023-03-01T23:53:27.789Z,48.72
2023-03-01T23:56:35.972Z,48.91
2023-03-01T23:59:38.028Z,49.48
